Airfield :
LOGIN :

Register | Disclaimer

   EN    FR    IT 

 










Legend :    VFR   Marginal VFR   IFR   Intensive IFR   Very Intensive IFR
Visi :
Ceiling :
>= 8 km
>= 3000ft
5 to 8 km
1000 to 3000 ft
1500m to 5 km
500 to 1000 ft
800 to 1500m
200 to 500 ft
< 800m
< 200 ft
Symbols :   Thunderstorms  Fog  Heavy snow  Heavy precipitations  Wind > 20 kt
SIGMETs :     Misc.  Thunderstorms  Icing  Turbulence  Mountain Waves  Volcanic Ashes






- Airport Elevation : 247 ft
- IATA code : BLL


EKBI - Billund

CURRENT METAR :
  • 191350Z AUTO 08010KT 9999 OVC045/// 13/07 Q1021

EXPIRED METARs :
  • 191320Z AUTO 10009KT 9999 OVC039/// 13/06 Q1021
  • 191250Z AUTO 08009KT 9999 OVC039/// 13/06 Q1021
  • 191220Z AUTO 09008KT 9999 OVC041/// 13/05 Q1021
  • 191150Z AUTO 08008KT 9999 OVC039/// 13/06 Q1022
  • 191120Z AUTO 08009KT 050V110 9999 OVC038/// 13/06 Q1022

TAF TAF EKBI
Valid from the 19 at 12:00 until the 20 at 12:00 UTC


191102Z 1912/2012 09010KT 9999 BKN035



MET'MAP, your aeronautical weather chart ! - Copyright ORBIFLY December 2007 - Disclaimer

ORBIFLY MET'MAP TEAM :

Programming & Development : Alexandra Zaïnal
Concept & original design : Baudouin d'Aumeries
Assistance for programming : Marc-Olivier Méhu
Technical & hardware support : Manuel Goepfert

Contact : metmap@orbifly.com




SOURCES & CREDITS :

   NOAA